sensor_id;sensor_type;location;lat;lon;timestamp;P1;durP1;ratioP1;P2;durP2;ratioP2
42168;SDS011;27838;43.858;25.974;2023-02-22T00:00:51;10.75;;;7.28;;
42168;SDS011;27838;43.858;25.974;2023-02-22T00:05:49;12.68;;;7.00;;
42168;SDS011;27838;43.858;25.974;2023-02-22T00:08:23;11.30;;;6.88;;
42168;SDS011;27838;43.858;25.974;2023-02-22T00:10:55;8.38;;;6.30;;
42168;SDS011;27838;43.858;25.974;2023-02-22T00:13:22;11.60;;;6.63;;
42168;SDS011;27838;43.858;25.974;2023-02-22T00:15:49;19.33;;;7.00;;
42168;SDS011;27838;43.858;25.974;2023-02-22T00:18:26;10.55;;;6.60;;
42168;SDS011;27838;43.858;25.974;2023-02-22T00:20:55;10.27;;;6.50;;
42168;SDS011;27838;43.858;25.974;2023-02-22T00:23:24;9.25;;;6.63;;
42168;SDS011;27838;43.858;25.974;2023-02-22T00:25:53;11.63;;;6.93;;
42168;SDS011;27838;43.858;25.974;2023-02-22T00:28:21;10.10;;;7.28;;
42168;SDS011;27838;43.858;25.974;2023-02-22T00:30:48;10.15;;;7.07;;
42168;SDS011;27838;43.858;25.974;2023-02-22T00:33:15;10.90;;;6.90;;
42168;SDS011;27838;43.858;25.974;2023-02-22T00:35:43;14.02;;;7.07;;
42168;SDS011;27838;43.858;25.974;2023-02-22T00:38:11;12.45;;;7.25;;
42168;SDS011;27838;43.858;25.974;2023-02-22T00:40:39;10.20;;;7.15;;
42168;SDS011;27838;43.858;25.974;2023-02-22T00:43:06;15.10;;;8.20;;
42168;SDS011;27838;43.858;25.974;2023-02-22T00:45:33;13.10;;;7.32;;
42168;SDS011;27838;43.858;25.974;2023-02-22T00:48:02;14.30;;;7.88;;
42168;SDS011;27838;43.858;25.974;2023-02-22T00:50:30;14.95;;;7.97;;
42168;SDS011;27838;43.858;25.974;2023-02-22T00:52:58;12.65;;;7.63;;
42168;SDS011;27838;43.858;25.974;2023-02-22T00:55:27;13.05;;;7.20;;
42168;SDS011;27838;43.858;25.974;2023-02-22T00:57:59;10.75;;;7.38;;
42168;SDS011;27838;43.858;25.974;2023-02-22T01:00:27;12.13;;;7.20;;
42168;SDS011;27838;43.858;25.974;2023-02-22T01:02:56;12.27;;;7.57;;
42168;SDS011;27838;43.858;25.974;2023-02-22T01:05:25;11.50;;;7.57;;
42168;SDS011;27838;43.858;25.974;2023-02-22T01:07:54;11.80;;;7.47;;
42168;SDS011;27838;43.858;25.974;2023-02-22T01:10:22;9.57;;;6.68;;
42168;SDS011;27838;43.858;25.974;2023-02-22T01:12:51;11.18;;;7.13;;
42168;SDS011;27838;43.858;25.974;2023-02-22T01:15:33;11.68;;;7.85;;
42168;SDS011;27838;43.858;25.974;2023-02-22T01:18:01;16.83;;;7.28;;
42168;SDS011;27838;43.858;25.974;2023-02-22T01:20:29;12.95;;;6.93;;
42168;SDS011;27838;43.858;25.974;2023-02-22T01:22:57;13.88;;;7.28;;
42168;SDS011;27838;43.858;25.974;2023-02-22T01:25:26;11.68;;;7.03;;
42168;SDS011;27838;43.858;25.974;2023-02-22T01:30:25;12.82;;;7.30;;
42168;SDS011;27838;43.858;25.974;2023-02-22T01:32:57;17.35;;;8.00;;
42168;SDS011;27838;43.858;25.974;2023-02-22T01:35:26;12.50;;;6.93;;
42168;SDS011;27838;43.858;25.974;2023-02-22T01:37:55;13.70;;;7.65;;
42168;SDS011;27838;43.858;25.974;2023-02-22T01:40:42;11.65;;;6.75;;
42168;SDS011;27838;43.858;25.974;2023-02-22T01:43:16;11.15;;;7.50;;
42168;SDS011;27838;43.858;25.974;2023-02-22T01:48:41;14.93;;;7.93;;
42168;SDS011;27838;43.858;25.974;2023-02-22T01:51:14;10.40;;;6.78;;
42168;SDS011;27838;43.858;25.974;2023-02-22T01:56:21;11.20;;;6.82;;
42168;SDS011;27838;43.858;25.974;2023-02-22T01:58:52;13.85;;;7.18;;
42168;SDS011;27838;43.858;25.974;2023-02-22T02:01:26;14.32;;;6.80;;
42168;SDS011;27838;43.858;25.974;2023-02-22T02:03:55;11.60;;;7.05;;
42168;SDS011;27838;43.858;25.974;2023-02-22T02:06:27;10.25;;;6.05;;
42168;SDS011;27838;43.858;25.974;2023-02-22T02:11:27;12.77;;;7.20;;
42168;SDS011;27838;43.858;25.974;2023-02-22T02:13:57;11.23;;;7.18;;
42168;SDS011;27838;43.858;25.974;2023-02-22T02:16:26;9.55;;;6.72;;
42168;SDS011;27838;43.858;25.974;2023-02-22T02:19:09;11.55;;;6.55;;
42168;SDS011;27838;43.858;25.974;2023-02-22T02:25:01;13.82;;;6.30;;
42168;SDS011;27838;43.858;25.974;2023-02-22T02:31:09;19.42;;;7.15;;
42168;SDS011;27838;43.858;25.974;2023-02-22T02:39:38;11.52;;;6.30;;
42168;SDS011;27838;43.858;25.974;2023-02-22T02:42:15;8.60;;;6.30;;
42168;SDS011;27838;43.858;25.974;2023-02-22T02:44:52;14.70;;;6.47;;
42168;SDS011;27838;43.858;25.974;2023-02-22T02:47:31;10.48;;;6.03;;
42168;SDS011;27838;43.858;25.974;2023-02-22T02:50:12;11.38;;;6.05;;
42168;SDS011;27838;43.858;25.974;2023-02-22T02:52:44;9.30;;;5.57;;
42168;SDS011;27838;43.858;25.974;2023-02-22T02:55:13;12.95;;;5.78;;
42168;SDS011;27838;43.858;25.974;2023-02-22T02:57:40;9.98;;;6.32;;
42168;SDS011;27838;43.858;25.974;2023-02-22T03:00:07;11.18;;;5.90;;
42168;SDS011;27838;43.858;25.974;2023-02-22T03:02:57;8.40;;;5.25;;
42168;SDS011;27838;43.858;25.974;2023-02-22T03:11:08;10.35;;;5.68;;
42168;SDS011;27838;43.858;25.974;2023-02-22T03:16:44;7.72;;;5.32;;
42168;SDS011;27838;43.858;25.974;2023-02-22T03:19:26;12.50;;;5.80;;
42168;SDS011;27838;43.858;25.974;2023-02-22T03:22:01;11.13;;;5.53;;
42168;SDS011;27838;43.858;25.974;2023-02-22T03:24:52;8.50;;;5.97;;
42168;SDS011;27838;43.858;25.974;2023-02-22T03:30:15;8.52;;;5.32;;
42168;SDS011;27838;43.858;25.974;2023-02-22T03:32:56;14.13;;;6.30;;
42168;SDS011;27838;43.858;25.974;2023-02-22T03:35:31;16.15;;;6.60;;
42168;SDS011;27838;43.858;25.974;2023-02-22T03:38:01;8.35;;;5.72;;
42168;SDS011;27838;43.858;25.974;2023-02-22T03:40:32;11.70;;;6.07;;
42168;SDS011;27838;43.858;25.974;2023-02-22T03:43:06;10.27;;;5.90;;
42168;SDS011;27838;43.858;25.974;2023-02-22T03:45:34;8.32;;;6.03;;
42168;SDS011;27838;43.858;25.974;2023-02-22T03:48:13;9.75;;;6.50;;
42168;SDS011;27838;43.858;25.974;2023-02-22T03:50:45;11.82;;;5.72;;
42168;SDS011;27838;43.858;25.974;2023-02-22T03:53:14;11.93;;;6.47;;
42168;SDS011;27838;43.858;25.974;2023-02-22T03:55:42;9.95;;;6.30;;
42168;SDS011;27838;43.858;25.974;2023-02-22T03:58:10;12.48;;;6.63;;
42168;SDS011;27838;43.858;25.974;2023-02-22T04:00:39;10.15;;;5.95;;
42168;SDS011;27838;43.858;25.974;2023-02-22T04:03:09;11.82;;;6.43;;
42168;SDS011;27838;43.858;25.974;2023-02-22T04:05:36;10.93;;;6.32;;
42168;SDS011;27838;43.858;25.974;2023-02-22T04:08:03;8.05;;;6.13;;
42168;SDS011;27838;43.858;25.974;2023-02-22T04:10:32;11.82;;;5.95;;
42168;SDS011;27838;43.858;25.974;2023-02-22T04:13:02;11.43;;;5.82;;
42168;SDS011;27838;43.858;25.974;2023-02-22T04:15:31;9.63;;;5.75;;
42168;SDS011;27838;43.858;25.974;2023-02-22T04:17:58;10.80;;;6.28;;
42168;SDS011;27838;43.858;25.974;2023-02-22T04:20:25;9.38;;;5.65;;
42168;SDS011;27838;43.858;25.974;2023-02-22T04:22:52;13.35;;;6.32;;
42168;SDS011;27838;43.858;25.974;2023-02-22T04:25:21;11.43;;;6.22;;
42168;SDS011;27838;43.858;25.974;2023-02-22T04:27:48;10.00;;;5.88;;
42168;SDS011;27838;43.858;25.974;2023-02-22T04:30:16;12.32;;;6.10;;
42168;SDS011;27838;43.858;25.974;2023-02-22T04:32:44;10.73;;;6.07;;
42168;SDS011;27838;43.858;25.974;2023-02-22T04:35:11;9.68;;;5.50;;
42168;SDS011;27838;43.858;25.974;2023-02-22T04:37:38;9.82;;;6.47;;
42168;SDS011;27838;43.858;25.974;2023-02-22T04:40:14;8.98;;;6.10;;
42168;SDS011;27838;43.858;25.974;2023-02-22T04:42:42;9.18;;;6.13;;
42168;SDS011;27838;43.858;25.974;2023-02-22T04:45:08;9.73;;;6.15;;
42168;SDS011;27838;43.858;25.974;2023-02-22T04:47:36;10.00;;;5.90;;
42168;SDS011;27838;43.858;25.974;2023-02-22T04:50:03;9.90;;;5.78;;
42168;SDS011;27838;43.858;25.974;2023-02-22T04:52:31;8.95;;;6.10;;
42168;SDS011;27838;43.858;25.974;2023-02-22T04:54:57;8.73;;;5.85;;
42168;SDS011;27838;43.858;25.974;2023-02-22T04:57:24;11.15;;;6.20;;
42168;SDS011;27838;43.858;25.974;2023-02-22T04:59:51;11.00;;;5.97;;
42168;SDS011;27838;43.858;25.974;2023-02-22T05:02:17;14.48;;;6.40;;
42168;SDS011;27838;43.858;25.974;2023-02-22T05:04:44;10.48;;;6.60;;
42168;SDS011;27838;43.858;25.974;2023-02-22T05:07:11;10.13;;;6.22;;
42168;SDS011;27838;43.858;25.974;2023-02-22T05:09:38;12.82;;;6.10;;
42168;SDS011;27838;43.858;25.974;2023-02-22T05:12:04;7.70;;;5.57;;
42168;SDS011;27838;43.858;25.974;2023-02-22T05:14:31;16.77;;;6.50;;
42168;SDS011;27838;43.858;25.974;2023-02-22T05:16:58;12.40;;;6.10;;
42168;SDS011;27838;43.858;25.974;2023-02-22T05:19:35;11.52;;;6.40;;
42168;SDS011;27838;43.858;25.974;2023-02-22T05:22:02;9.70;;;6.10;;
42168;SDS011;27838;43.858;25.974;2023-02-22T05:24:29;11.43;;;5.80;;
42168;SDS011;27838;43.858;25.974;2023-02-22T05:26:56;10.18;;;6.15;;
42168;SDS011;27838;43.858;25.974;2023-02-22T05:29:23;7.18;;;5.63;;
42168;SDS011;27838;43.858;25.974;2023-02-22T05:31:50;9.68;;;5.80;;
42168;SDS011;27838;43.858;25.974;2023-02-22T05:34:16;17.52;;;6.22;;
42168;SDS011;27838;43.858;25.974;2023-02-22T05:36:43;15.00;;;6.35;;
42168;SDS011;27838;43.858;25.974;2023-02-22T05:39:10;9.98;;;6.75;;
42168;SDS011;27838;43.858;25.974;2023-02-22T05:41:37;10.77;;;6.93;;
42168;SDS011;27838;43.858;25.974;2023-02-22T05:44:03;10.63;;;6.15;;
42168;SDS011;27838;43.858;25.974;2023-02-22T05:46:30;10.88;;;5.82;;
42168;SDS011;27838;43.858;25.974;2023-02-22T05:48:57;16.92;;;5.88;;
42168;SDS011;27838;43.858;25.974;2023-02-22T05:51:23;13.98;;;6.05;;
42168;SDS011;27838;43.858;25.974;2023-02-22T05:53:50;8.88;;;5.53;;
42168;SDS011;27838;43.858;25.974;2023-02-22T05:56:21;15.70;;;6.18;;
42168;SDS011;27838;43.858;25.974;2023-02-22T05:58:51;9.52;;;4.95;;
42168;SDS011;27838;43.858;25.974;2023-02-22T06:01:19;9.52;;;5.38;;
42168;SDS011;27838;43.858;25.974;2023-02-22T06:03:47;12.25;;;5.30;;
42168;SDS011;27838;43.858;25.974;2023-02-22T06:06:15;9.82;;;5.22;;
42168;SDS011;27838;43.858;25.974;2023-02-22T06:08:44;13.93;;;5.20;;
42168;SDS011;27838;43.858;25.974;2023-02-22T06:11:11;11.45;;;6.22;;
42168;SDS011;27838;43.858;25.974;2023-02-22T06:13:38;14.63;;;6.40;;
42168;SDS011;27838;43.858;25.974;2023-02-22T06:16:05;11.52;;;6.47;;
42168;SDS011;27838;43.858;25.974;2023-02-22T06:18:32;12.95;;;6.90;;
42168;SDS011;27838;43.858;25.974;2023-02-22T06:20:59;11.40;;;6.75;;
42168;SDS011;27838;43.858;25.974;2023-02-22T06:23:26;18.35;;;7.07;;
42168;SDS011;27838;43.858;25.974;2023-02-22T06:25:53;11.68;;;5.70;;
42168;SDS011;27838;43.858;25.974;2023-02-22T06:28:20;12.18;;;5.43;;
42168;SDS011;27838;43.858;25.974;2023-02-22T06:30:47;10.27;;;5.80;;
42168;SDS011;27838;43.858;25.974;2023-02-22T06:33:14;11.13;;;5.43;;
42168;SDS011;27838;43.858;25.974;2023-02-22T06:35:41;12.70;;;6.30;;
42168;SDS011;27838;43.858;25.974;2023-02-22T06:38:07;10.30;;;5.78;;
42168;SDS011;27838;43.858;25.974;2023-02-22T06:40:34;11.55;;;5.60;;
42168;SDS011;27838;43.858;25.974;2023-02-22T06:43:01;12.57;;;6.20;;
42168;SDS011;27838;43.858;25.974;2023-02-22T06:45:28;11.95;;;5.70;;
42168;SDS011;27838;43.858;25.974;2023-02-22T06:47:54;8.88;;;5.55;;
42168;SDS011;27838;43.858;25.974;2023-02-22T06:50:22;8.98;;;5.22;;
42168;SDS011;27838;43.858;25.974;2023-02-22T06:52:50;10.40;;;5.18;;
42168;SDS011;27838;43.858;25.974;2023-02-22T06:55:18;9.48;;;5.50;;
42168;SDS011;27838;43.858;25.974;2023-02-22T06:57:52;9.60;;;5.63;;
42168;SDS011;27838;43.858;25.974;2023-02-22T07:00:20;26.15;;;16.88;;
42168;SDS011;27838;43.858;25.974;2023-02-22T07:02:49;32.88;;;21.15;;
42168;SDS011;27838;43.858;25.974;2023-02-22T07:05:17;18.98;;;11.00;;
42168;SDS011;27838;43.858;25.974;2023-02-22T07:07:46;28.90;;;14.50;;
42168;SDS011;27838;43.858;25.974;2023-02-22T07:10:21;16.73;;;8.13;;
42168;SDS011;27838;43.858;25.974;2023-02-22T07:12:52;28.75;;;16.50;;
42168;SDS011;27838;43.858;25.974;2023-02-22T07:15:20;14.25;;;7.68;;
42168;SDS011;27838;43.858;25.974;2023-02-22T07:17:48;15.45;;;10.02;;
42168;SDS011;27838;43.858;25.974;2023-02-22T07:20:16;12.50;;;6.18;;
42168;SDS011;27838;43.858;25.974;2023-02-22T07:22:44;9.90;;;6.40;;
42168;SDS011;27838;43.858;25.974;2023-02-22T07:25:12;15.32;;;7.25;;
42168;SDS011;27838;43.858;25.974;2023-02-22T07:27:39;14.13;;;6.88;;
42168;SDS011;27838;43.858;25.974;2023-02-22T07:30:07;12.20;;;7.10;;
42168;SDS011;27838;43.858;25.974;2023-02-22T07:32:42;13.02;;;6.85;;
42168;SDS011;27838;43.858;25.974;2023-02-22T07:35:28;16.55;;;6.53;;
42168;SDS011;27838;43.858;25.974;2023-02-22T07:37:56;13.30;;;7.22;;
42168;SDS011;27838;43.858;25.974;2023-02-22T07:40:23;14.63;;;10.23;;
42168;SDS011;27838;43.858;25.974;2023-02-22T07:45:26;29.35;;;19.95;;
42168;SDS011;27838;43.858;25.974;2023-02-22T07:47:54;35.03;;;25.27;;
42168;SDS011;27838;43.858;25.974;2023-02-22T07:50:21;12.60;;;7.60;;
42168;SDS011;27838;43.858;25.974;2023-02-22T07:52:49;11.88;;;7.00;;
42168;SDS011;27838;43.858;25.974;2023-02-22T07:55:21;13.90;;;9.82;;
42168;SDS011;27838;43.858;25.974;2023-02-22T07:57:50;14.40;;;7.95;;
42168;SDS011;27838;43.858;25.974;2023-02-22T08:00:25;10.88;;;7.57;;
42168;SDS011;27838;43.858;25.974;2023-02-22T08:02:54;12.40;;;7.38;;
42168;SDS011;27838;43.858;25.974;2023-02-22T08:05:23;15.20;;;8.50;;
42168;SDS011;27838;43.858;25.974;2023-02-22T08:07:51;16.55;;;8.27;;
42168;SDS011;27838;43.858;25.974;2023-02-22T08:10:19;12.52;;;7.47;;
42168;SDS011;27838;43.858;25.974;2023-02-22T08:12:47;10.73;;;6.50;;
42168;SDS011;27838;43.858;25.974;2023-02-22T08:15:18;12.80;;;7.18;;
42168;SDS011;27838;43.858;25.974;2023-02-22T08:18:06;22.20;;;8.18;;
42168;SDS011;27838;43.858;25.974;2023-02-22T08:20:35;12.02;;;7.50;;
42168;SDS011;27838;43.858;25.974;2023-02-22T08:23:03;11.35;;;7.50;;
42168;SDS011;27838;43.858;25.974;2023-02-22T08:25:31;10.90;;;8.18;;
42168;SDS011;27838;43.858;25.974;2023-02-22T08:27:58;23.85;;;16.10;;
42168;SDS011;27838;43.858;25.974;2023-02-22T08:30:27;25.77;;;16.17;;
42168;SDS011;27838;43.858;25.974;2023-02-22T08:32:55;11.00;;;7.63;;
42168;SDS011;27838;43.858;25.974;2023-02-22T08:35:22;16.42;;;7.20;;
42168;SDS011;27838;43.858;25.974;2023-02-22T08:37:53;21.55;;;14.25;;
42168;SDS011;27838;43.858;25.974;2023-02-22T08:40:23;26.65;;;8.02;;
42168;SDS011;27838;43.858;25.974;2023-02-22T08:42:51;12.57;;;6.85;;
42168;SDS011;27838;43.858;25.974;2023-02-22T08:45:18;12.88;;;6.68;;
42168;SDS011;27838;43.858;25.974;2023-02-22T08:47:45;19.98;;;10.40;;
42168;SDS011;27838;43.858;25.974;2023-02-22T08:50:31;13.30;;;6.70;;
42168;SDS011;27838;43.858;25.974;2023-02-22T08:52:59;12.55;;;7.07;;
42168;SDS011;27838;43.858;25.974;2023-02-22T08:55:29;11.27;;;6.72;;
42168;SDS011;27838;43.858;25.974;2023-02-22T08:57:58;13.43;;;7.00;;
42168;SDS011;27838;43.858;25.974;2023-02-22T09:00:27;15.65;;;6.97;;
42168;SDS011;27838;43.858;25.974;2023-02-22T09:02:58;13.25;;;6.57;;
42168;SDS011;27838;43.858;25.974;2023-02-22T09:05:26;15.07;;;6.82;;
42168;SDS011;27838;43.858;25.974;2023-02-22T09:07:52;12.32;;;6.53;;
42168;SDS011;27838;43.858;25.974;2023-02-22T09:10:21;10.82;;;6.40;;
42168;SDS011;27838;43.858;25.974;2023-02-22T09:12:50;17.10;;;9.37;;
42168;SDS011;27838;43.858;25.974;2023-02-22T09:15:20;15.15;;;7.32;;
42168;SDS011;27838;43.858;25.974;2023-02-22T09:17:47;20.65;;;13.98;;
42168;SDS011;27838;43.858;25.974;2023-02-22T09:20:15;26.05;;;7.70;;
42168;SDS011;27838;43.858;25.974;2023-02-22T09:22:44;13.38;;;6.47;;
42168;SDS011;27838;43.858;25.974;2023-02-22T09:25:11;11.07;;;6.93;;
42168;SDS011;27838;43.858;25.974;2023-02-22T09:27:38;8.20;;;5.40;;
42168;SDS011;27838;43.858;25.974;2023-02-22T09:30:06;10.15;;;7.07;;
42168;SDS011;27838;43.858;25.974;2023-02-22T09:32:35;8.60;;;5.57;;
42168;SDS011;27838;43.858;25.974;2023-02-22T09:35:02;17.40;;;6.07;;
42168;SDS011;27838;43.858;25.974;2023-02-22T09:37:28;14.38;;;6.30;;
42168;SDS011;27838;43.858;25.974;2023-02-22T09:39:55;10.25;;;6.15;;
42168;SDS011;27838;43.858;25.974;2023-02-22T09:42:26;12.98;;;7.68;;
42168;SDS011;27838;43.858;25.974;2023-02-22T09:45:07;16.30;;;6.72;;
42168;SDS011;27838;43.858;25.974;2023-02-22T09:48:02;9.65;;;5.50;;
42168;SDS011;27838;43.858;25.974;2023-02-22T09:50:34;7.95;;;6.15;;
42168;SDS011;27838;43.858;25.974;2023-02-22T09:53:49;13.25;;;6.70;;
42168;SDS011;27838;43.858;25.974;2023-02-22T09:56:07;11.85;;;6.07;;
42168;SDS011;27838;43.858;25.974;2023-02-22T09:58:39;9.35;;;5.38;;
42168;SDS011;27838;43.858;25.974;2023-02-22T10:04:20;8.52;;;5.97;;
42168;SDS011;27838;43.858;25.974;2023-02-22T10:09:57;11.60;;;5.93;;
42168;SDS011;27838;43.858;25.974;2023-02-22T10:15:35;9.88;;;6.32;;
42168;SDS011;27838;43.858;25.974;2023-02-22T10:21:00;9.48;;;5.20;;
42168;SDS011;27838;43.858;25.974;2023-02-22T10:23:53;10.10;;;6.45;;
42168;SDS011;27838;43.858;25.974;2023-02-22T10:26:34;12.75;;;5.93;;
42168;SDS011;27838;43.858;25.974;2023-02-22T10:29:17;11.43;;;5.68;;
42168;SDS011;27838;43.858;25.974;2023-02-22T10:31:55;9.60;;;5.43;;
42168;SDS011;27838;43.858;25.974;2023-02-22T10:34:26;13.98;;;5.75;;
42168;SDS011;27838;43.858;25.974;2023-02-22T10:39:52;10.65;;;5.22;;
42168;SDS011;27838;43.858;25.974;2023-02-22T10:42:36;9.68;;;5.63;;
42168;SDS011;27838;43.858;25.974;2023-02-22T10:45:03;14.23;;;7.10;;
42168;SDS011;27838;43.858;25.974;2023-02-22T10:47:43;10.80;;;5.50;;
42168;SDS011;27838;43.858;25.974;2023-02-22T10:50:11;11.60;;;5.47;;
42168;SDS011;27838;43.858;25.974;2023-02-22T10:52:39;15.43;;;4.70;;
42168;SDS011;27838;43.858;25.974;2023-02-22T10:55:10;8.00;;;5.25;;
42168;SDS011;27838;43.858;25.974;2023-02-22T10:57:40;9.65;;;5.45;;
42168;SDS011;27838;43.858;25.974;2023-02-22T11:00:19;14.02;;;5.78;;
42168;SDS011;27838;43.858;25.974;2023-02-22T11:03:17;9.70;;;5.85;;
42168;SDS011;27838;43.858;25.974;2023-02-22T11:05:46;13.95;;;6.22;;
42168;SDS011;27838;43.858;25.974;2023-02-22T11:10:46;18.20;;;5.93;;
42168;SDS011;27838;43.858;25.974;2023-02-22T11:13:23;14.48;;;5.68;;
42168;SDS011;27838;43.858;25.974;2023-02-22T11:15:53;10.38;;;5.63;;
42168;SDS011;27838;43.858;25.974;2023-02-22T11:18:22;12.82;;;5.47;;
42168;SDS011;27838;43.858;25.974;2023-02-22T11:21:01;11.25;;;4.75;;
42168;SDS011;27838;43.858;25.974;2023-02-22T11:23:32;12.23;;;5.63;;
42168;SDS011;27838;43.858;25.974;2023-02-22T11:26:06;8.90;;;5.25;;
42168;SDS011;27838;43.858;25.974;2023-02-22T11:28:43;13.70;;;5.75;;
42168;SDS011;27838;43.858;25.974;2023-02-22T11:31:17;10.95;;;5.47;;
42168;SDS011;27838;43.858;25.974;2023-02-22T11:36:29;20.77;;;5.63;;
42168;SDS011;27838;43.858;25.974;2023-02-22T11:39:02;14.52;;;5.60;;
42168;SDS011;27838;43.858;25.974;2023-02-22T11:41:31;9.10;;;5.60;;
42168;SDS011;27838;43.858;25.974;2023-02-22T11:47:00;11.15;;;4.85;;
42168;SDS011;27838;43.858;25.974;2023-02-22T11:49:34;8.95;;;4.75;;
42168;SDS011;27838;43.858;25.974;2023-02-22T11:55:11;13.13;;;5.45;;
42168;SDS011;27838;43.858;25.974;2023-02-22T11:58:06;10.00;;;5.53;;
42168;SDS011;27838;43.858;25.974;2023-02-22T12:15:38;12.57;;;5.20;;
42168;SDS011;27838;43.858;25.974;2023-02-22T12:20:55;12.25;;;4.78;;
42168;SDS011;27838;43.858;25.974;2023-02-22T12:26:06;11.25;;;5.35;;
42168;SDS011;27838;43.858;25.974;2023-02-22T12:31:27;12.05;;;5.30;;
42168;SDS011;27838;43.858;25.974;2023-02-22T12:34:03;9.02;;;4.88;;
42168;SDS011;27838;43.858;25.974;2023-02-22T12:36:44;8.90;;;4.30;;
42168;SDS011;27838;43.858;25.974;2023-02-22T12:39:58;16.38;;;5.63;;
42168;SDS011;27838;43.858;25.974;2023-02-22T12:42:43;7.97;;;5.00;;
42168;SDS011;27838;43.858;25.974;2023-02-22T12:45:13;7.80;;;5.10;;
42168;SDS011;27838;43.858;25.974;2023-02-22T12:47:49;13.05;;;5.90;;
42168;SDS011;27838;43.858;25.974;2023-02-22T12:50:26;10.48;;;5.43;;
42168;SDS011;27838;43.858;25.974;2023-02-22T12:53:16;15.75;;;6.85;;
42168;SDS011;27838;43.858;25.974;2023-02-22T12:55:54;15.93;;;6.90;;
42168;SDS011;27838;43.858;25.974;2023-02-22T12:58:45;11.13;;;7.10;;
42168;SDS011;27838;43.858;25.974;2023-02-22T13:01:20;11.13;;;6.93;;
42168;SDS011;27838;43.858;25.974;2023-02-22T13:03:50;12.35;;;6.85;;
42168;SDS011;27838;43.858;25.974;2023-02-22T13:06:39;12.23;;;6.10;;
42168;SDS011;27838;43.858;25.974;2023-02-22T13:18:03;13.10;;;7.30;;
42168;SDS011;27838;43.858;25.974;2023-02-22T13:29:28;9.98;;;6.47;;
42168;SDS011;27838;43.858;25.974;2023-02-22T14:02:59;12.82;;;9.02;;
42168;SDS011;27838;43.858;25.974;2023-02-22T14:08:05;27.55;;;9.20;;
42168;SDS011;27838;43.858;25.974;2023-02-22T14:10:37;13.73;;;8.00;;
42168;SDS011;27838;43.858;25.974;2023-02-22T14:13:15;39.47;;;14.80;;
42168;SDS011;27838;43.858;25.974;2023-02-22T14:16:14;19.20;;;8.52;;
42168;SDS011;27838;43.858;25.974;2023-02-22T14:18:42;20.98;;;10.15;;
42168;SDS011;27838;43.858;25.974;2023-02-22T14:23:42;19.73;;;10.45;;
42168;SDS011;27838;43.858;25.974;2023-02-22T14:29:13;24.63;;;10.02;;
42168;SDS011;27838;43.858;25.974;2023-02-22T14:36:39;22.02;;;9.70;;
42168;SDS011;27838;43.858;25.974;2023-02-22T14:39:30;26.17;;;10.75;;
42168;SDS011;27838;43.858;25.974;2023-02-22T14:47:57;23.73;;;10.73;;
42168;SDS011;27838;43.858;25.974;2023-02-22T14:50:11;29.65;;;19.27;;
42168;SDS011;27838;43.858;25.974;2023-02-22T14:52:39;29.70;;;19.90;;
42168;SDS011;27838;43.858;25.974;2023-02-22T15:00:23;26.92;;;12.25;;
42168;SDS011;27838;43.858;25.974;2023-02-22T15:03:02;26.58;;;12.43;;
42168;SDS011;27838;43.858;25.974;2023-02-22T15:05:34;25.38;;;12.07;;
42168;SDS011;27838;43.858;25.974;2023-02-22T15:08:05;34.22;;;17.75;;
42168;SDS011;27838;43.858;25.974;2023-02-22T15:15:53;24.33;;;13.97;;
42168;SDS011;27838;43.858;25.974;2023-02-22T15:21:13;23.33;;;11.45;;
42168;SDS011;27838;43.858;25.974;2023-02-22T15:26:24;25.02;;;12.70;;
42168;SDS011;27838;43.858;25.974;2023-02-22T15:28:59;28.08;;;11.73;;
42168;SDS011;27838;43.858;25.974;2023-02-22T15:31:33;26.38;;;13.57;;
42168;SDS011;27838;43.858;25.974;2023-02-22T15:34:13;29.08;;;15.77;;
42168;SDS011;27838;43.858;25.974;2023-02-22T15:36:44;31.80;;;12.25;;
42168;SDS011;27838;43.858;25.974;2023-02-22T15:39:25;19.20;;;12.40;;
42168;SDS011;27838;43.858;25.974;2023-02-22T15:42:07;25.23;;;12.73;;
42168;SDS011;27838;43.858;25.974;2023-02-22T15:44:43;21.02;;;12.15;;
42168;SDS011;27838;43.858;25.974;2023-02-22T15:47:15;27.38;;;14.02;;
42168;SDS011;27838;43.858;25.974;2023-02-22T15:49:44;26.88;;;13.00;;
42168;SDS011;27838;43.858;25.974;2023-02-22T15:52:17;27.70;;;12.93;;
42168;SDS011;27838;43.858;25.974;2023-02-22T15:54:50;27.85;;;13.50;;
42168;SDS011;27838;43.858;25.974;2023-02-22T15:57:22;32.95;;;14.10;;
42168;SDS011;27838;43.858;25.974;2023-02-22T15:59:52;28.75;;;14.13;;
42168;SDS011;27838;43.858;25.974;2023-02-22T16:05:00;34.13;;;20.13;;
42168;SDS011;27838;43.858;25.974;2023-02-22T16:07:39;23.98;;;13.82;;
42168;SDS011;27838;43.858;25.974;2023-02-22T16:10:20;50.50;;;28.63;;
42168;SDS011;27838;43.858;25.974;2023-02-22T16:13:17;25.17;;;13.75;;
42168;SDS011;27838;43.858;25.974;2023-02-22T16:15:53;25.45;;;13.88;;
42168;SDS011;27838;43.858;25.974;2023-02-22T16:18:27;28.35;;;16.05;;
42168;SDS011;27838;43.858;25.974;2023-02-22T16:21:02;30.80;;;16.63;;
42168;SDS011;27838;43.858;25.974;2023-02-22T16:23:41;26.75;;;16.50;;
42168;SDS011;27838;43.858;25.974;2023-02-22T16:29:06;27.42;;;15.75;;
42168;SDS011;27838;43.858;25.974;2023-02-22T16:31:36;27.40;;;16.08;;
42168;SDS011;27838;43.858;25.974;2023-02-22T16:34:07;21.10;;;13.85;;
42168;SDS011;27838;43.858;25.974;2023-02-22T16:36:36;32.97;;;15.50;;
42168;SDS011;27838;43.858;25.974;2023-02-22T16:39:06;23.77;;;14.45;;
42168;SDS011;27838;43.858;25.974;2023-02-22T16:41:36;27.30;;;13.38;;
42168;SDS011;27838;43.858;25.974;2023-02-22T16:44:03;28.75;;;13.40;;
42168;SDS011;27838;43.858;25.974;2023-02-22T16:46:31;22.45;;;12.40;;
42168;SDS011;27838;43.858;25.974;2023-02-22T16:48:58;25.92;;;13.25;;
42168;SDS011;27838;43.858;25.974;2023-02-22T16:51:27;74.45;;;52.92;;
42168;SDS011;27838;43.858;25.974;2023-02-22T16:54:03;27.67;;;17.17;;
42168;SDS011;27838;43.858;25.974;2023-02-22T16:56:31;31.98;;;21.17;;
42168;SDS011;27838;43.858;25.974;2023-02-22T16:59:00;33.20;;;19.15;;
42168;SDS011;27838;43.858;25.974;2023-02-22T17:01:30;31.17;;;18.30;;
42168;SDS011;27838;43.858;25.974;2023-02-22T17:03:58;14.68;;;10.98;;
42168;SDS011;27838;43.858;25.974;2023-02-22T17:06:24;20.92;;;11.57;;
42168;SDS011;27838;43.858;25.974;2023-02-22T17:08:53;21.30;;;11.95;;
42168;SDS011;27838;43.858;25.974;2023-02-22T17:11:19;22.42;;;11.88;;
42168;SDS011;27838;43.858;25.974;2023-02-22T17:13:46;25.65;;;11.65;;
42168;SDS011;27838;43.858;25.974;2023-02-22T17:16:15;23.05;;;11.30;;
42168;SDS011;27838;43.858;25.974;2023-02-22T17:18:42;26.77;;;13.00;;
42168;SDS011;27838;43.858;25.974;2023-02-22T17:21:10;18.70;;;11.75;;
42168;SDS011;27838;43.858;25.974;2023-02-22T17:23:37;24.83;;;13.85;;
42168;SDS011;27838;43.858;25.974;2023-02-22T17:26:03;29.40;;;13.85;;
42168;SDS011;27838;43.858;25.974;2023-02-22T17:28:30;26.48;;;14.43;;
42168;SDS011;27838;43.858;25.974;2023-02-22T17:30:57;30.75;;;17.67;;
42168;SDS011;27838;43.858;25.974;2023-02-22T17:33:25;32.17;;;16.80;;
42168;SDS011;27838;43.858;25.974;2023-02-22T17:35:55;27.92;;;16.08;;
42168;SDS011;27838;43.858;25.974;2023-02-22T17:38:23;31.98;;;16.67;;
42168;SDS011;27838;43.858;25.974;2023-02-22T17:40:53;29.73;;;16.77;;
42168;SDS011;27838;43.858;25.974;2023-02-22T17:43:19;85.88;;;51.58;;